createdAt,value
2018-04-02T00:01:13.640Z,97.12
2018-04-02T00:03:39.447Z,97.30
2018-04-02T00:06:05.239Z,97.05
2018-04-02T00:08:31.022Z,96.98
2018-04-02T00:10:56.927Z,97.17
2018-04-02T00:13:22.729Z,97.25
2018-04-02T00:15:48.520Z,97.33
2018-04-02T00:18:14.313Z,97.18
2018-04-02T00:20:40.112Z,97.41
2018-04-02T00:23:05.883Z,97.47
2018-04-02T00:25:31.700Z,97.51
2018-04-02T00:27:57.496Z,97.50
2018-04-02T00:30:23.292Z,97.17
2018-04-02T00:32:49.376Z,97.22
2018-04-02T00:35:15.159Z,97.22
2018-04-02T00:37:40.964Z,97.36
2018-04-02T00:40:06.756Z,97.54
2018-04-02T00:42:32.548Z,97.44
2018-04-02T00:44:58.352Z,97.14
2018-04-02T00:47:24.176Z,97.14
2018-04-02T00:49:49.973Z,97.30
2018-04-02T00:52:15.763Z,97.06
2018-04-02T00:54:41.577Z,97.39
2018-04-02T00:57:07.364Z,97.19
2018-04-02T00:59:33.159Z,97.21
2018-04-02T01:01:58.968Z,97.19
2018-04-02T01:04:24.758Z,97.24
2018-04-02T01:06:50.544Z,97.37
2018-04-02T01:09:16.448Z,96.52
2018-04-02T01:11:42.256Z,97.28
2018-04-02T01:14:08.070Z,97.24
2018-04-02T01:16:33.882Z,97.55
2018-04-02T01:18:59.667Z,96.92
2018-04-02T01:21:25.464Z,96.88
2018-04-02T01:23:51.277Z,96.63
2018-04-02T01:26:17.095Z,96.45
2018-04-02T01:28:42.915Z,96.32
2018-04-02T01:31:09.082Z,96.23
2018-04-02T01:33:34.857Z,96.12
2018-04-02T01:36:00.641Z,95.82
2018-04-02T01:38:26.439Z,95.95
2018-04-02T01:40:52.371Z,96.66
2018-04-02T01:43:18.154Z,96.13
2018-04-02T01:45:43.936Z,96.23
2018-04-02T01:48:09.745Z,97.00
2018-04-02T01:50:35.532Z,96.72
2018-04-02T01:53:01.311Z,96.62
2018-04-02T01:55:27.087Z,96.65
2018-04-02T01:57:52.896Z,96.41
2018-04-02T02:00:18.715Z,96.40
2018-04-02T02:02:44.507Z,95.97
2018-04-02T02:05:10.285Z,95.47
2018-04-02T02:07:36.097Z,96.08
2018-04-02T02:10:01.910Z,96.13
2018-04-02T02:12:27.729Z,96.12
2018-04-02T02:14:53.520Z,96.12
2018-04-02T02:17:19.305Z,95.49
2018-04-02T02:19:45.128Z,95.48
2018-04-02T02:22:10.923Z,95.70
2018-04-02T02:24:36.699Z,95.77
2018-04-02T02:27:02.548Z,95.02
2018-04-02T02:29:28.331Z,94.83
2018-04-02T02:31:54.119Z,94.89
2018-04-02T02:34:19.894Z,95.46
2018-04-02T02:36:45.682Z,95.24
2018-04-02T02:39:11.495Z,94.50
2018-04-02T02:41:37.277Z,94.49
2018-04-02T02:44:03.073Z,94.40
2018-04-02T02:46:29.086Z,94.40
2018-04-02T02:48:54.866Z,94.70
2018-04-02T02:51:20.669Z,94.69
2018-04-02T02:53:46.472Z,93.96
2018-04-02T02:56:12.270Z,94.06
2018-04-02T02:58:38.047Z,93.91
2018-04-02T03:01:03.824Z,94.62
2018-04-02T03:03:29.650Z,94.18
2018-04-02T03:05:55.452Z,94.33
2018-04-02T03:08:21.263Z,94.27
2018-04-02T03:10:47.063Z,94.23
2018-04-02T03:13:12.850Z,93.82
2018-04-02T03:18:11.176Z,93.39
2018-04-02T03:20:36.942Z,94.13
2018-04-02T03:23:02.791Z,93.97
2018-04-02T03:25:28.578Z,93.68
2018-04-02T03:27:54.378Z,93.79
2018-04-02T03:30:20.168Z,94.30
2018-04-02T03:32:45.950Z,94.42
2018-04-02T03:35:11.773Z,93.96
2018-04-02T03:37:37.676Z,94.37
2018-04-02T03:40:03.466Z,94.10
2018-04-02T03:42:29.260Z,93.87
2018-04-02T03:44:55.363Z,94.32
2018-04-02T03:47:21.176Z,94.11
2018-04-02T03:49:46.986Z,94.58
2018-04-02T03:52:12.899Z,94.17
2018-04-02T03:54:38.687Z,94.13
2018-04-02T03:57:04.484Z,93.44
2018-04-02T03:59:30.262Z,93.82
2018-04-02T04:01:56.084Z,93.99
2018-04-02T04:04:22.831Z,93.93
2018-04-02T04:06:48.728Z,93.41
2018-04-02T04:09:14.534Z,93.82
2018-04-02T04:11:40.336Z,93.47
2018-04-02T04:14:06.114Z,93.37
2018-04-02T04:16:32.700Z,92.76
2018-04-02T04:18:58.560Z,93.58
2018-04-02T04:21:24.360Z,94.44
2018-04-02T04:23:50.161Z,94.83
2018-04-02T04:26:15.967Z,94.47
2018-04-02T04:28:41.746Z,94.73
2018-04-02T04:31:07.545Z,94.64
2018-04-02T04:33:33.381Z,94.49
2018-04-02T04:35:59.150Z,94.75
2018-04-02T04:38:24.983Z,94.76
2018-04-02T04:40:50.758Z,94.79
2018-04-02T04:43:16.541Z,95.26
2018-04-02T04:45:42.327Z,95.97
2018-04-02T04:48:08.116Z,95.55
2018-04-02T04:50:34.054Z,95.46
2018-04-02T04:52:59.854Z,95.77
2018-04-02T04:55:25.645Z,95.97
2018-04-02T04:57:51.542Z,95.94
2018-04-02T05:00:17.343Z,95.69
2018-04-02T05:02:43.128Z,95.64
2018-04-02T05:05:08.947Z,95.23
2018-04-02T05:07:34.751Z,95.67
2018-04-02T05:10:00.559Z,95.61
2018-04-02T05:12:26.442Z,95.74
2018-04-02T05:14:52.166Z,96.00
2018-04-02T05:17:17.945Z,95.65
2018-04-02T05:19:43.732Z,95.76
2018-04-02T05:22:09.531Z,95.79
2018-04-02T05:24:35.334Z,95.88
2018-04-02T05:27:01.100Z,95.87
2018-04-02T05:29:26.904Z,96.17
2018-04-02T05:31:53.638Z,95.75
2018-04-02T05:34:19.430Z,95.84
2018-04-02T05:36:45.208Z,95.67
2018-04-02T05:39:11.028Z,95.53
2018-04-02T05:41:36.819Z,96.20
2018-04-02T05:44:02.598Z,95.22
2018-04-02T05:46:28.470Z,94.91
2018-04-02T05:48:54.274Z,95.04
2018-04-02T05:51:20.051Z,94.80
2018-04-02T05:53:45.842Z,94.41
2018-04-02T05:56:11.610Z,94.67
2018-04-02T05:58:37.614Z,93.85
2018-04-02T06:01:03.424Z,94.08
2018-04-02T06:03:36.184Z,94.52
2018-04-02T06:06:01.997Z,93.79
2018-04-02T06:08:27.784Z,94.25
2018-04-02T06:10:53.573Z,93.36
2018-04-02T06:13:19.692Z,93.02
2018-04-02T06:15:45.490Z,92.99
2018-04-02T06:18:11.273Z,93.14
2018-04-02T06:20:37.053Z,93.20
2018-04-02T06:23:02.862Z,92.62
2018-04-02T06:25:28.648Z,93.58
2018-04-02T06:27:54.447Z,93.18
2018-04-02T06:30:20.231Z,92.84
2018-04-02T06:32:46.007Z,92.15
2018-04-02T06:35:11.800Z,92.55
2018-04-02T06:37:37.620Z,92.59
2018-04-02T06:40:03.430Z,92.81
2018-04-02T06:42:29.227Z,92.57
2018-04-02T06:44:55.110Z,91.82
2018-04-02T06:47:20.890Z,91.51
2018-04-02T06:49:46.704Z,91.84
2018-04-02T06:52:12.498Z,92.51
2018-04-02T06:54:38.316Z,92.13
2018-04-02T06:57:04.108Z,91.07
2018-04-02T07:02:20.903Z,91.18
2018-04-02T07:04:46.688Z,91.40
2018-04-02T07:07:12.473Z,91.22
2018-04-02T07:09:38.261Z,90.71
2018-04-02T07:12:04.059Z,90.27
2018-04-02T07:14:29.848Z,88.88
2018-04-02T07:16:55.655Z,90.20
2018-04-02T07:19:21.440Z,88.37
2018-04-02T07:21:47.259Z,87.21
2018-04-02T07:24:13.073Z,86.14
2018-04-02T07:26:38.871Z,86.24
2018-04-02T07:29:05.004Z,84.95
2018-04-02T07:31:30.783Z,84.95
2018-04-02T07:33:56.571Z,86.58
2018-04-02T07:36:22.366Z,86.22
2018-04-02T07:38:48.151Z,85.99
2018-04-02T07:41:13.927Z,84.48
2018-04-02T07:43:40.068Z,83.94
2018-04-02T07:46:05.856Z,84.09
2018-04-02T07:48:31.644Z,84.18
2018-04-02T07:51:05.031Z,83.51
2018-04-02T07:53:30.845Z,81.17
2018-04-02T07:55:57.805Z,81.56
2018-04-02T07:58:23.955Z,83.22
2018-04-02T08:00:50.333Z,80.25
2018-04-02T08:03:16.715Z,81.38
2018-04-02T08:05:43.439Z,79.14
2018-04-02T08:08:09.241Z,79.71
2018-04-02T08:10:35.292Z,79.11
2018-04-02T08:13:01.116Z,78.13
2018-04-02T08:15:27.876Z,78.99
2018-04-02T08:17:54.290Z,75.94
2018-04-02T08:20:20.091Z,75.26
2018-04-02T08:22:47.519Z,73.21
2018-04-02T08:25:13.340Z,74.49
2018-04-02T08:27:39.249Z,74.12
2018-04-02T08:30:05.076Z,74.22
2018-04-02T08:32:30.941Z,74.96
2018-04-02T08:34:56.701Z,75.49
2018-04-02T08:37:22.494Z,73.63
2018-04-02T08:39:49.275Z,73.87
2018-04-02T08:42:15.092Z,75.41
2018-04-02T08:44:40.875Z,73.88
2018-04-02T08:47:06.663Z,70.58
2018-04-02T08:49:32.470Z,71.18
2018-04-02T08:51:58.285Z,70.35
2018-04-02T08:54:24.091Z,69.79
2018-04-02T08:56:49.908Z,68.99
2018-04-02T08:59:15.715Z,69.36
2018-04-02T09:01:41.518Z,71.20
2018-04-02T09:04:07.339Z,70.32
2018-04-02T09:06:33.146Z,69.69
2018-04-02T09:08:58.976Z,70.47
2018-04-02T09:11:24.816Z,69.41
2018-04-02T09:13:50.625Z,67.36
2018-04-02T09:16:16.427Z,68.17
2018-04-02T09:18:42.248Z,70.20
2018-04-02T09:21:08.059Z,65.97
2018-04-02T09:23:33.863Z,66.70
2018-04-02T09:25:59.676Z,67.54
2018-04-02T09:28:25.498Z,68.06
2018-04-02T09:30:51.336Z,67.58
2018-04-02T09:33:17.155Z,67.78
2018-04-02T09:35:42.939Z,66.67
2018-04-02T09:38:08.729Z,65.84
2018-04-02T09:40:34.518Z,66.71
2018-04-02T09:43:00.524Z,65.37
2018-04-02T09:45:26.307Z,65.06
2018-04-02T09:47:52.104Z,65.76
2018-04-02T09:50:17.899Z,63.16
2018-04-02T09:52:43.675Z,63.98
2018-04-02T09:55:09.473Z,64.97
2018-04-02T09:57:35.267Z,65.19
2018-04-02T10:00:01.141Z,64.36
2018-04-02T10:02:26.961Z,65.21
2018-04-02T10:04:54.870Z,64.02
2018-04-02T10:07:20.640Z,62.28
2018-04-02T10:09:46.456Z,63.37
2018-04-02T10:12:12.251Z,67.30
2018-04-02T10:14:38.080Z,61.26
2018-04-02T10:17:03.865Z,61.68
2018-04-02T10:19:29.652Z,61.76
2018-04-02T10:21:55.659Z,61.70
2018-04-02T10:24:21.459Z,62.40
2018-04-02T10:26:47.254Z,61.69
2018-04-02T10:29:13.209Z,63.24
2018-04-02T10:31:39.003Z,63.51
2018-04-02T10:34:04.803Z,61.93
2018-04-02T10:36:30.595Z,62.15
2018-04-02T10:38:56.386Z,60.91
2018-04-02T10:41:22.190Z,60.14
2018-04-02T10:43:47.991Z,57.44
2018-04-02T10:46:13.784Z,54.58
2018-04-02T10:48:39.606Z,55.54
2018-04-02T10:51:05.403Z,58.56
2018-04-02T10:53:31.222Z,59.77
2018-04-02T10:55:56.998Z,60.59
2018-04-02T10:58:22.782Z,58.00
2018-04-02T11:00:48.611Z,57.60
2018-04-02T11:03:14.383Z,57.63
2018-04-02T11:05:40.230Z,54.99
2018-04-02T11:08:06.305Z,54.79
2018-04-02T11:10:32.099Z,54.79
2018-04-02T11:12:57.876Z,54.76
2018-04-02T11:15:23.676Z,55.36
2018-04-02T11:17:49.452Z,55.40
2018-04-02T11:20:15.261Z,54.07
2018-04-02T11:22:41.058Z,51.99
2018-04-02T11:25:06.847Z,50.96
2018-04-02T11:27:32.951Z,53.36
2018-04-02T11:29:58.743Z,53.04
2018-04-02T11:32:24.550Z,54.84
2018-04-02T11:34:50.374Z,53.57
2018-04-02T11:37:16.164Z,56.83
2018-04-02T11:39:41.957Z,51.36
2018-04-02T11:42:07.775Z,51.08
2018-04-02T11:44:33.554Z,49.87
2018-04-02T11:46:59.346Z,51.01
2018-04-02T11:49:25.216Z,49.67
2018-04-02T11:51:51.012Z,50.79
2018-04-02T11:54:16.806Z,49.87
2018-04-02T11:56:42.599Z,50.89
2018-04-02T11:59:08.391Z,47.80
2018-04-02T12:01:34.338Z,47.73
2018-04-02T12:04:00.166Z,47.68
2018-04-02T12:06:25.980Z,48.94
2018-04-02T12:08:51.834Z,47.91
2018-04-02T12:11:17.611Z,48.85
2018-04-02T12:13:43.417Z,49.56
2018-04-02T12:16:09.845Z,48.85
2018-04-02T12:18:35.040Z,50.09
2018-04-02T12:21:00.890Z,50.96
2018-04-02T12:23:26.759Z,51.43
2018-04-02T12:25:52.551Z,50.93
2018-04-02T12:28:18.359Z,50.82
2018-04-02T12:30:44.254Z,51.45
2018-04-02T12:33:10.043Z,51.26
2018-04-02T12:35:35.832Z,51.10
2018-04-02T12:38:01.675Z,49.37
2018-04-02T12:40:27.467Z,48.92
2018-04-02T12:42:53.244Z,47.58
2018-04-02T12:45:19.054Z,47.90
2018-04-02T12:47:44.867Z,48.00
2018-04-02T12:50:10.660Z,48.05
2018-04-02T12:52:36.455Z,48.67
2018-04-02T12:55:02.286Z,47.39
2018-04-02T12:57:28.080Z,49.07
2018-04-02T12:59:53.892Z,48.19
2018-04-02T13:02:19.700Z,47.94
2018-04-02T13:04:45.515Z,49.06
2018-04-02T13:07:11.406Z,48.41
2018-04-02T13:09:37.223Z,50.23
2018-04-02T13:12:03.009Z,47.44
2018-04-02T13:14:28.796Z,52.98
2018-04-02T13:16:54.601Z,49.11
2018-04-02T13:19:20.438Z,49.70
2018-04-02T13:21:46.347Z,46.93
2018-04-02T13:24:12.162Z,50.94
2018-04-02T13:26:38.138Z,45.72
2018-04-02T13:29:03.955Z,45.76
2018-04-02T13:31:29.784Z,47.99
2018-04-02T13:33:55.596Z,49.05
2018-04-02T13:36:21.395Z,50.51
2018-04-02T13:38:47.189Z,51.15
2018-04-02T13:41:12.980Z,46.98
2018-04-02T13:43:38.767Z,47.75
2018-04-02T13:46:04.556Z,48.01
2018-04-02T13:48:30.352Z,47.46
2018-04-02T13:50:56.193Z,48.08
2018-04-02T13:53:22.263Z,48.87
2018-04-02T13:55:48.045Z,48.55
2018-04-02T13:58:13.823Z,48.19
2018-04-02T14:00:39.821Z,47.63
2018-04-02T14:03:05.616Z,47.64
2018-04-02T14:05:31.436Z,48.25
2018-04-02T14:07:57.578Z,47.67
2018-04-02T14:10:23.399Z,47.96
2018-04-02T14:12:49.216Z,47.89
2018-04-02T14:15:15.020Z,47.49
2018-04-02T14:17:40.812Z,48.33
2018-04-02T14:20:06.612Z,47.99
2018-04-02T14:25:05.020Z,47.06
2018-04-02T14:27:30.831Z,47.57
2018-04-02T14:29:56.638Z,47.77
2018-04-02T14:32:22.450Z,49.17
2018-04-02T14:34:48.271Z,47.80
2018-04-02T14:37:14.067Z,47.89
2018-04-02T14:39:39.858Z,49.82
2018-04-02T14:42:05.664Z,48.17
2018-04-02T14:44:31.506Z,50.18
2018-04-02T14:46:57.282Z,47.78
2018-04-02T14:49:23.098Z,49.03
2018-04-02T14:51:48.887Z,49.04
2018-04-02T14:54:14.688Z,49.11
2018-04-02T14:56:40.486Z,49.96
2018-04-02T14:59:06.325Z,49.99
2018-04-02T15:01:32.131Z,50.40
2018-04-02T15:03:57.915Z,49.96
2018-04-02T15:06:23.732Z,50.01
2018-04-02T15:08:49.544Z,50.37
2018-04-02T15:11:15.330Z,50.67
2018-04-02T15:13:41.215Z,50.85
2018-04-02T15:16:07.033Z,50.88
2018-04-02T15:18:32.832Z,51.34
2018-04-02T15:20:58.900Z,51.13
2018-04-02T15:23:24.694Z,51.02
2018-04-02T15:25:52.458Z,51.53
2018-04-02T15:28:18.256Z,53.13
2018-04-02T15:30:44.045Z,52.42
2018-04-02T15:33:09.859Z,51.90
2018-04-02T15:35:35.666Z,52.22
2018-04-02T15:38:01.560Z,50.80
2018-04-02T15:40:27.353Z,51.61
2018-04-02T15:42:53.141Z,52.05
2018-04-02T15:45:19.029Z,52.00
2018-04-02T15:47:44.823Z,52.35
2018-04-02T15:50:11.418Z,52.36
2018-04-02T15:52:37.218Z,52.52
2018-04-02T15:55:03.019Z,52.72
2018-04-02T15:57:28.811Z,52.22
2018-04-02T15:59:54.607Z,55.01
2018-04-02T16:02:20.431Z,51.44
2018-04-02T16:04:46.250Z,52.10
2018-04-02T16:07:12.074Z,52.03
2018-04-02T16:09:37.874Z,52.30
2018-04-02T16:12:03.690Z,53.14
2018-04-02T16:14:29.463Z,51.30
2018-04-02T16:48:22.228Z,53.06
2018-04-02T16:50:48.028Z,53.15
2018-04-02T16:53:13.822Z,54.67
2018-04-02T16:55:39.614Z,54.97
2018-04-02T16:58:05.458Z,54.77
2018-04-02T17:00:31.299Z,56.01
2018-04-02T17:02:57.104Z,57.03
2018-04-02T17:05:22.943Z,57.18
2018-04-02T17:07:48.762Z,67.83
2018-04-02T17:10:14.595Z,56.72
2018-04-02T17:12:40.399Z,58.23
2018-04-02T17:15:06.215Z,61.73
2018-04-02T17:17:32.060Z,63.35
2018-04-02T17:19:57.864Z,53.44
2018-04-02T17:22:23.671Z,54.47
2018-04-02T17:24:49.472Z,56.01
2018-04-02T17:27:15.278Z,56.61
2018-04-02T17:29:41.094Z,57.56
2018-04-02T17:32:06.883Z,58.17
2018-04-02T17:34:32.678Z,56.11
2018-04-02T17:36:58.480Z,57.05
2018-04-02T17:39:24.290Z,58.04
2018-04-02T17:41:50.400Z,58.33
2018-04-02T17:44:16.210Z,59.07
2018-04-02T17:46:42.002Z,69.84
2018-04-02T17:49:07.824Z,58.43
2018-04-02T17:51:33.667Z,58.99
2018-04-02T17:53:59.459Z,59.89
2018-04-02T17:56:25.291Z,62.27
2018-04-02T17:58:51.116Z,53.01
2018-04-02T18:01:16.930Z,61.90
2018-04-02T18:03:42.738Z,57.06
2018-04-02T18:06:08.527Z,60.08
2018-04-02T18:08:34.318Z,61.97
2018-04-02T18:11:00.167Z,62.20
2018-04-02T18:13:25.964Z,63.33
2018-04-02T18:15:51.932Z,63.85
2018-04-02T18:18:17.792Z,64.58
2018-04-02T18:20:44.602Z,65.04
2018-04-02T18:23:10.404Z,66.07
2018-04-02T18:25:36.220Z,66.29
2018-04-02T18:28:02.070Z,67.88
2018-04-02T18:30:27.845Z,67.33
2018-04-02T18:32:53.648Z,67.66
2018-04-02T18:35:19.450Z,68.53
2018-04-02T18:37:45.266Z,68.30
2018-04-02T18:40:11.242Z,67.98
2018-04-02T18:42:37.050Z,67.92
2018-04-02T18:45:02.950Z,68.10
2018-04-02T18:47:28.668Z,68.43
2018-04-02T18:49:54.475Z,68.95
2018-04-02T18:52:20.356Z,70.01
2018-04-02T18:54:46.168Z,68.97
2018-04-02T18:57:11.997Z,70.25
2018-04-02T18:59:37.845Z,70.11
2018-04-02T19:02:03.687Z,70.65
2018-04-02T19:04:29.508Z,70.44
2018-04-02T19:06:55.342Z,71.94
2018-04-02T19:09:21.149Z,71.78
2018-04-02T19:11:46.975Z,67.99
2018-04-02T19:14:12.845Z,66.69
2018-04-02T19:16:38.650Z,70.46
2018-04-02T19:19:04.447Z,71.78
2018-04-02T19:21:30.321Z,73.22
2018-04-02T19:23:56.133Z,73.70
2018-04-02T19:26:21.937Z,74.35
2018-04-02T19:28:47.771Z,75.55
2018-04-02T19:31:13.597Z,75.68
2018-04-02T19:33:39.483Z,76.03
2018-04-02T19:36:05.326Z,77.16
2018-04-02T19:38:31.171Z,76.81
2018-04-02T19:40:57.001Z,74.51
2018-04-02T19:43:23.459Z,74.72
2018-04-02T19:45:50.249Z,76.20
2018-04-02T19:48:16.441Z,76.16
2018-04-02T19:50:42.225Z,78.34
2018-04-02T19:53:08.043Z,75.44
2018-04-02T19:55:33.843Z,75.92
2018-04-02T19:58:00.180Z,76.25
2018-04-02T20:00:26.016Z,76.45
2018-04-02T20:02:51.803Z,77.03
2018-04-02T20:05:18.129Z,76.73
2018-04-02T20:07:43.941Z,76.00
2018-04-02T20:10:09.773Z,76.55
2018-04-02T20:12:36.432Z,75.89
2018-04-02T20:15:02.266Z,76.20
2018-04-02T20:17:28.111Z,75.69
2018-04-02T20:19:53.920Z,75.47
2018-04-02T20:22:19.782Z,76.07
2018-04-02T20:24:45.581Z,75.28
2018-04-02T20:27:11.580Z,74.66
2018-04-02T20:29:37.428Z,73.68
2018-04-02T20:32:03.243Z,70.50
2018-04-02T20:34:29.173Z,73.00
2018-04-02T20:36:54.980Z,72.86
2018-04-02T20:39:21.288Z,73.02
2018-04-02T20:41:47.093Z,74.12
2018-04-02T20:44:13.125Z,73.91
2018-04-02T20:46:39.102Z,73.84
2018-04-02T20:49:04.928Z,74.03
2018-04-02T20:51:30.737Z,74.59
2018-04-02T20:53:56.519Z,73.58
2018-04-02T20:56:22.378Z,73.10
2018-04-02T20:58:48.170Z,73.22
2018-04-02T21:01:14.019Z,72.96
2018-04-02T21:03:39.840Z,72.42
2018-04-02T21:06:05.632Z,73.26
2018-04-02T21:08:31.482Z,73.19
2018-04-02T21:10:57.311Z,72.94
2018-04-02T21:13:23.103Z,72.73
2018-04-02T21:15:48.915Z,71.86
2018-04-02T21:18:14.710Z,72.19
2018-04-02T21:20:40.548Z,72.41
2018-04-02T21:23:06.352Z,72.75
2018-04-02T21:25:32.167Z,72.85
2018-04-02T21:27:57.966Z,73.35
2018-04-02T21:30:23.761Z,68.56
2018-04-02T21:32:49.570Z,72.20
2018-04-02T21:35:16.153Z,74.02
2018-04-02T21:37:41.964Z,76.23
2018-04-02T21:40:07.788Z,76.04
2018-04-02T21:42:34.092Z,77.75
2018-04-02T21:44:59.886Z,77.12
2018-04-02T21:47:25.681Z,76.67
2018-04-02T21:49:51.511Z,76.99
2018-04-02T21:52:17.311Z,77.91
2018-04-02T21:54:43.093Z,75.71
2018-04-02T21:57:08.889Z,76.95
2018-04-02T21:59:34.682Z,77.23
2018-04-02T22:02:00.477Z,77.58
2018-04-02T22:04:26.551Z,75.75
2018-04-02T22:07:01.255Z,75.84
2018-04-02T22:09:27.049Z,76.97
2018-04-02T22:11:52.848Z,77.86
2018-04-02T22:14:18.640Z,77.41
2018-04-02T22:16:44.427Z,77.77
2018-04-02T22:19:10.418Z,78.73
2018-04-02T22:21:36.224Z,77.85
2018-04-02T22:24:02.022Z,78.16
2018-04-02T22:26:27.841Z,79.18
2018-04-02T22:28:53.648Z,79.65
2018-04-02T22:31:19.434Z,80.12
2018-04-02T22:33:45.235Z,79.30
2018-04-02T22:36:11.018Z,79.46
2018-04-02T22:38:36.822Z,79.53
2018-04-02T22:41:02.645Z,79.80
2018-04-02T22:43:28.988Z,80.44
2018-04-02T22:45:54.800Z,79.90
2018-04-02T22:48:20.635Z,80.35
2018-04-02T22:50:46.462Z,80.31
2018-04-02T22:53:12.270Z,80.14
2018-04-02T22:55:38.083Z,79.20
2018-04-02T22:58:03.992Z,79.58
2018-04-02T23:00:29.812Z,79.57
2018-04-02T23:02:55.639Z,80.00
2018-04-02T23:05:21.464Z,78.84
2018-04-02T23:07:47.258Z,79.69
2018-04-02T23:10:13.042Z,79.46
2018-04-02T23:12:38.856Z,78.27
2018-04-02T23:15:04.652Z,78.16
2018-04-02T23:17:30.442Z,78.46
2018-04-02T23:19:56.554Z,79.41
2018-04-02T23:22:34.669Z,79.93
2018-04-02T23:25:00.467Z,78.84
2018-04-02T23:27:26.262Z,78.99
2018-04-02T23:29:52.061Z,84.33
2018-04-02T23:32:18.228Z,75.81
2018-04-02T23:34:44.022Z,74.61
2018-04-02T23:37:09.816Z,73.78
2018-04-02T23:39:35.628Z,76.78
2018-04-02T23:42:01.553Z,79.07
2018-04-02T23:44:27.354Z,81.22
2018-04-02T23:46:53.140Z,82.48
2018-04-02T23:49:18.957Z,82.76
2018-04-02T23:51:44.753Z,83.43
2018-04-02T23:54:10.542Z,84.33
2018-04-02T23:56:36.543Z,85.34
2018-04-02T23:59:02.367Z,86.56
